Time;durP1;ratioP1;P1;durP2;ratioP2;P2;SDS_P1;SDS_P2;PMS_P1;PMS_P2;Temp;Humidity;BMP_temperature;BMP_pressure;BME280_temperature;BME280_humidity;BME280_pressure;Samples;Min_cycle;Max_cycle;Signal;HPM_P1;HPM_P2
2022/03/05 00:00:51;;;;;;;12.83;7.47;;;;;;;;;;5075953;28;20549;-87
2022/03/05 00:03:57;;;;;;;14.83;7.03;;;;;;;;;;5051738;28;21175;-87
2022/03/05 00:07:01;;;;;;;12.57;7.20;;;;;;;;;;5051880;28;20598;-87
2022/03/05 00:10:05;;;;;;;13.53;7.40;;;;;;;;;;5051863;28;20598;-87
2022/03/05 00:13:09;;;;;;;10.53;6.33;;;;;;;;;;5051399;28;20621;-87
2022/03/05 00:16:13;;;;;;;12.13;6.87;;;;;;;;;;5051122;28;20609;-87
2022/03/05 00:19:18;;;;;;;12.40;6.43;;;;;;;;;;5051712;28;20545;-87
2022/03/05 00:22:22;;;;;;;12.67;7.07;;;;;;;;;;5051755;28;20701;-87
2022/03/05 00:25:26;;;;;;;14.30;7.80;;;;;;;;;;5051540;28;20582;-87
2022/03/05 00:28:29;;;;;;;14.00;7.87;;;;;;;;;;5051706;28;20593;-86
2022/03/05 00:31:34;;;;;;;12.73;7.00;;;;;;;;;;5050393;28;20535;-86
2022/03/05 00:34:38;;;;;;;12.40;7.60;;;;;;;;;;5051549;28;20551;-86
2022/03/05 00:37:42;;;;;;;14.60;6.43;;;;;;;;;;5062960;28;20523;-86
2022/03/05 00:40:47;;;;;;;13.87;6.90;;;;;;;;;;5051442;28;20546;-87
2022/03/05 00:43:51;;;;;;;11.30;6.93;;;;;;;;;;4997016;23;20670;-84
2022/03/05 00:46:55;;;;;;;10.90;6.67;;;;;;;;;;4942077;29;20595;-84
2022/03/05 00:50:01;;;;;;;12.30;6.83;;;;;;;;;;4988009;28;20599;-84
2022/03/05 00:53:06;;;;;;;14.63;6.43;;;;;;;;;;4923077;29;20628;-84
2022/03/05 00:56:10;;;;;;;14.47;7.83;;;;;;;;;;4934540;29;20604;-84
2022/03/05 00:59:14;;;;;;;12.23;6.80;;;;;;;;;;4958634;28;20626;-84
2022/03/05 01:02:18;;;;;;;13.30;7.47;;;;;;;;;;4952768;29;20595;-84
2022/03/05 01:05:22;;;;;;;17.07;7.57;;;;;;;;;;4941971;29;20596;-84
2022/03/05 01:08:26;;;;;;;11.80;6.97;;;;;;;;;;4941544;29;20595;-84
2022/03/05 01:11:31;;;;;;;11.30;6.37;;;;;;;;;;4941853;29;20549;-84
2022/03/05 01:14:35;;;;;;;11.40;6.90;;;;;;;;;;4941612;29;20619;-84
2022/03/05 01:17:40;;;;;;;10.63;6.43;;;;;;;;;;4941723;29;21021;-84
2022/03/05 01:20:44;;;;;;;13.97;7.47;;;;;;;;;;4922158;29;20970;-85
2022/03/05 01:23:48;;;;;;;14.20;6.67;;;;;;;;;;4948800;28;20654;-85
2022/03/05 01:26:52;;;;;;;12.13;6.97;;;;;;;;;;4941315;29;20532;-85
2022/03/05 01:29:56;;;;;;;14.63;7.63;;;;;;;;;;4940692;29;20591;-85
2022/03/05 01:33:00;;;;;;;12.33;6.87;;;;;;;;;;4963114;28;20628;-85
2022/03/05 01:36:05;;;;;;;11.23;7.23;;;;;;;;;;4951942;29;20634;-85
2022/03/05 01:39:09;;;;;;;12.43;7.00;;;;;;;;;;4951238;29;20599;-85
2022/03/05 01:42:13;;;;;;;13.53;7.20;;;;;;;;;;4940121;29;20939;-85
2022/03/05 01:45:17;;;;;;;13.40;7.00;;;;;;;;;;4951611;28;20959;-85
2022/03/05 01:48:21;;;;;;;12.77;7.13;;;;;;;;;;4940389;29;20632;-85
2022/03/05 01:51:26;;;;;;;11.97;7.50;;;;;;;;;;4932624;29;20615;-85
2022/03/05 01:54:30;;;;;;;13.57;7.03;;;;;;;;;;4943427;28;20632;-85
2022/03/05 01:57:34;;;;;;;12.83;6.57;;;;;;;;;;4921731;29;21161;-85
2022/03/05 02:00:38;;;;;;;13.67;7.23;;;;;;;;;;4932663;29;20537;-85
2022/03/05 02:03:43;;;;;;;10.93;6.93;;;;;;;;;;4936280;29;20652;-85
2022/03/05 02:06:47;;;;;;;12.50;7.17;;;;;;;;;;4951939;29;20559;-85
2022/03/05 02:09:51;;;;;;;13.63;7.47;;;;;;;;;;4951253;29;20599;-85
2022/03/05 02:12:56;;;;;;;11.63;7.07;;;;;;;;;;4940578;29;20635;-85
2022/03/05 02:16:00;;;;;;;14.53;7.17;;;;;;;;;;4940732;29;20604;-85
2022/03/05 02:19:05;;;;;;;12.43;7.03;;;;;;;;;;4940103;29;20627;-86
2022/03/05 02:22:10;;;;;;;15.23;7.30;;;;;;;;;;4940170;29;20607;-85
2022/03/05 02:25:14;;;;;;;12.33;7.07;;;;;;;;;;4940875;29;20544;-85
2022/03/05 02:28:19;;;;;;;14.53;6.83;;;;;;;;;;4940341;29;20587;-85
2022/03/05 02:31:23;;;;;;;14.17;7.20;;;;;;;;;;4940515;29;20540;-85
2022/03/05 02:34:29;;;;;;;15.17;7.60;;;;;;;;;;4940375;29;20627;-85
2022/03/05 02:37:33;;;;;;;13.90;7.10;;;;;;;;;;4921201;29;20600;-85
2022/03/05 02:40:37;;;;;;;13.80;7.40;;;;;;;;;;4929581;29;20548;-85
2022/03/05 02:43:41;;;;;;;13.97;7.00;;;;;;;;;;4940178;28;20997;-85
2022/03/05 02:46:45;;;;;;;11.17;6.63;;;;;;;;;;4928823;29;20595;-85
2022/03/05 02:49:50;;;;;;;13.40;6.90;;;;;;;;;;4939792;29;20934;-85
2022/03/05 02:52:54;;;;;;;13.90;8.17;;;;;;;;;;4950914;28;20654;-85
2022/03/05 02:55:58;;;;;;;13.93;6.90;;;;;;;;;;4943123;29;20610;-85
2022/03/05 02:59:02;;;;;;;11.53;6.80;;;;;;;;;;4942947;29;20603;-85
2022/03/05 03:02:06;;;;;;;12.47;6.97;;;;;;;;;;4943028;29;20595;-86
2022/03/05 03:05:10;;;;;;;12.60;7.03;;;;;;;;;;4932554;29;20543;-86
2022/03/05 03:08:15;;;;;;;15.13;7.10;;;;;;;;;;4942642;29;20583;-85
2022/03/05 03:11:19;;;;;;;14.93;7.40;;;;;;;;;;4942988;29;20603;-85
2022/03/05 03:14:23;;;;;;;13.03;6.90;;;;;;;;;;4942579;29;20654;-85
2022/03/05 03:17:27;;;;;;;14.10;7.10;;;;;;;;;;4943228;29;20607;-85
2022/03/05 03:20:32;;;;;;;10.80;6.67;;;;;;;;;;4941459;29;20595;-85
2022/03/05 03:23:37;;;;;;;12.73;7.53;;;;;;;;;;4942917;29;20619;-85
2022/03/05 03:26:45;;;;;;;13.67;7.40;;;;;;;;;;4942273;29;20942;-85
2022/03/05 03:29:49;;;;;;;13.63;7.50;;;;;;;;;;4942780;29;20958;-85
2022/03/05 03:32:53;;;;;;;14.10;7.67;;;;;;;;;;4958060;29;20650;-85
2022/03/05 03:35:57;;;;;;;13.33;7.87;;;;;;;;;;4959959;29;20543;-85
2022/03/05 03:39:03;;;;;;;14.57;8.03;;;;;;;;;;4940391;29;20533;-86
2022/03/05 03:42:07;;;;;;;13.07;8.43;;;;;;;;;;4962009;28;20989;-85
2022/03/05 03:45:12;;;;;;;16.33;8.57;;;;;;;;;;4953596;29;20564;-85
2022/03/05 03:48:16;;;;;;;17.47;8.50;;;;;;;;;;4942288;29;20615;-85
2022/03/05 03:51:20;;;;;;;16.37;8.70;;;;;;;;;;4942703;28;20599;-85
2022/03/05 03:54:24;;;;;;;15.83;7.90;;;;;;;;;;4942482;29;20650;-86
2022/03/05 03:57:29;;;;;;;18.57;7.60;;;;;;;;;;4942183;29;20975;-85
2022/03/05 04:00:34;;;;;;;13.73;7.80;;;;;;;;;;4942519;29;20551;-85
2022/03/05 04:03:38;;;;;;;14.47;8.17;;;;;;;;;;4942015;29;20659;-85
2022/03/05 04:10:05;;;;;;;15.52;7.93;;;;;;;;;;4953466;29;20884;-86
2022/03/05 04:13:09;;;;;;;13.05;7.75;;;;;;;;;;4942492;29;20224;-85
2022/03/05 04:16:14;;;;;;;17.73;8.40;;;;;;;;;;4934191;29;20207;-85
2022/03/05 04:19:18;;;;;;;18.27;8.25;;;;;;;;;;4948371;29;20526;-85
2022/03/05 04:22:22;;;;;;;16.08;8.45;;;;;;;;;;4979805;28;20192;-85
2022/03/05 04:25:27;;;;;;;16.30;8.23;;;;;;;;;;4970182;29;20199;-86
2022/03/05 04:28:31;;;;;;;18.03;9.73;;;;;;;;;;4941867;29;20188;-85
2022/03/05 04:31:36;;;;;;;17.05;8.40;;;;;;;;;;4964049;28;20543;-85
2022/03/05 04:34:42;;;;;;;16.77;8.95;;;;;;;;;;4952787;28;20224;-85
2022/03/05 04:37:46;;;;;;;13.45;7.25;;;;;;;;;;4941540;29;20215;-85
2022/03/05 04:40:51;;;;;;;14.87;7.97;;;;;;;;;;4923010;29;20627;-85
2022/03/05 04:43:55;;;;;;;17.30;8.95;;;;;;;;;;4933359;29;20643;-85
2022/03/05 04:46:59;;;;;;;14.50;8.07;;;;;;;;;;4937120;29;20188;-85
2022/03/05 04:50:05;;;;;;;13.23;8.05;;;;;;;;;;4930518;29;20603;-85
2022/03/05 04:53:09;;;;;;;17.47;8.80;;;;;;;;;;4941551;29;20223;-85
2022/03/05 04:56:13;;;;;;;15.13;8.20;;;;;;;;;;4952453;29;20603;-85
2022/03/05 04:59:17;;;;;;;18.60;8.93;;;;;;;;;;4929084;29;20194;-85
2022/03/05 05:02:21;;;;;;;16.63;9.18;;;;;;;;;;4941637;29;20543;-85
2022/03/05 05:05:25;;;;;;;21.48;10.45;;;;;;;;;;4941075;29;20184;-85
2022/03/05 05:08:29;;;;;;;18.10;9.00;;;;;;;;;;4951967;29;20223;-84
2022/03/05 05:11:33;;;;;;;16.13;9.50;;;;;;;;;;4933433;29;20184;-86
2022/03/05 05:14:37;;;;;;;18.75;9.20;;;;;;;;;;4938258;29;20219;-85
2022/03/05 05:17:41;;;;;;;17.83;9.37;;;;;;;;;;4940208;29;20539;-85
2022/03/05 05:20:45;;;;;;;17.02;9.95;;;;;;;;;;4940884;29;20595;-85
2022/03/05 05:23:49;;;;;;;21.65;10.77;;;;;;;;;;4941034;29;20219;-85
2022/03/05 05:26:54;;;;;;;25.80;9.70;;;;;;;;;;4941179;29;20194;-85
2022/03/05 05:29:58;;;;;;;21.92;9.13;;;;;;;;;;4951815;29;20684;-85
2022/03/05 05:33:03;;;;;;;18.23;9.60;;;;;;;;;;4941173;29;20223;-86
2022/03/05 05:36:07;;;;;;;15.52;9.40;;;;;;;;;;4940719;29;20203;-85
2022/03/05 05:39:12;;;;;;;17.58;9.82;;;;;;;;;;4925594;29;20184;-85
2022/03/05 05:42:16;;;;;;;18.65;10.10;;;;;;;;;;4940824;29;20203;-85
2022/03/05 05:45:20;;;;;;;18.50;9.77;;;;;;;;;;4949455;29;20206;-85
2022/03/05 05:48:24;;;;;;;17.23;9.02;;;;;;;;;;4940947;29;20212;-85
2022/03/05 05:51:28;;;;;;;16.35;9.93;;;;;;;;;;4932900;29;20184;-85
2022/03/05 05:54:33;;;;;;;19.40;10.68;;;;;;;;;;4938541;29;20219;-85
2022/03/05 05:57:37;;;;;;;23.40;10.93;;;;;;;;;;4951828;29;20654;-85
2022/03/05 06:00:41;;;;;;;19.30;10.43;;;;;;;;;;4950201;29;20210;-85
2022/03/05 06:03:45;;;;;;;18.23;10.68;;;;;;;;;;4951497;28;20230;-85
2022/03/05 06:06:49;;;;;;;19.77;10.73;;;;;;;;;;4940846;29;20190;-85
2022/03/05 06:09:53;;;;;;;21.02;10.45;;;;;;;;;;4951421;29;20198;-85
2022/03/05 06:12:57;;;;;;;30.75;11.00;;;;;;;;;;4940640;29;20578;-85
2022/03/05 06:16:01;;;;;;;27.45;11.38;;;;;;;;;;4951804;29;20187;-85
2022/03/05 06:19:08;;;;;;;21.38;11.15;;;;;;;;;;4940197;29;20198;-84
2022/03/05 06:22:12;;;;;;;21.92;12.07;;;;;;;;;;4921279;29;20220;-85
2022/03/05 06:25:19;;;;;;;25.90;12.13;;;;;;;;;;4931884;29;20222;-85
2022/03/05 06:28:23;;;;;;;25.17;12.40;;;;;;;;;;4964335;28;20674;-85
2022/03/05 06:31:27;;;;;;;23.27;11.87;;;;;;;;;;4953727;29;20594;-85
2022/03/05 06:34:31;;;;;;;21.87;10.63;;;;;;;;;;4943637;29;20641;-85
2022/03/05 06:37:36;;;;;;;25.20;12.13;;;;;;;;;;4932430;29;20605;-85
2022/03/05 06:40:40;;;;;;;21.57;10.63;;;;;;;;;;4943520;29;21113;-85
2022/03/05 06:49:39;;;;;;;23.80;14.47;;;;;;;;;;4941984;29;20607;-89
2022/03/05 06:53:41;;;;;;;23.97;12.97;;;;;;;;;;4985480;28;20602;-88
2022/03/05 07:23:04;;;;;;;19.60;12.20;;;;;;;;;;4994350;28;21118;-87
2022/03/05 07:58:09;;;;;;;45.13;20.53;;;;;;;;;;4955419;28;20717;-86
2022/03/05 08:13:24;;;;;;;30.17;15.27;;;;;;;;;;4892134;29;20645;-86
2022/03/05 08:23:17;;;;;;;20.57;10.70;;;;;;;;;;4992564;28;20636;-86
2022/03/05 08:26:24;;;;;;;22.37;12.57;;;;;;;;;;4900740;28;20628;-87
2022/03/05 08:29:35;;;;;;;21.70;11.57;;;;;;;;;;4942183;29;20670;-86
2022/03/05 08:32:39;;;;;;;22.90;13.00;;;;;;;;;;4943292;29;20596;-86
2022/03/05 08:36:15;;;;;;;21.80;11.83;;;;;;;;;;4930621;29;20610;-85
2022/03/05 08:39:22;;;;;;;21.30;11.40;;;;;;;;;;4959375;28;20606;-86
2022/03/05 08:42:26;;;;;;;22.03;12.53;;;;;;;;;;4950230;28;20595;-86
2022/03/05 08:45:57;;;;;;;20.30;11.77;;;;;;;;;;4930975;28;20611;-86
2022/03/05 08:49:04;;;;;;;21.77;12.60;;;;;;;;;;4953009;29;21279;-85
2022/03/05 08:52:08;;;;;;;23.07;13.33;;;;;;;;;;4952031;29;21104;-86
2022/03/05 08:55:16;;;;;;;20.00;11.20;;;;;;;;;;4932147;29;20603;-83
2022/03/05 08:58:28;;;;;;;22.60;11.93;;;;;;;;;;4951945;29;20599;-87
2022/03/05 09:01:34;;;;;;;23.50;12.83;;;;;;;;;;4930972;29;20599;-86
2022/03/05 09:04:46;;;;;;;18.77;11.47;;;;;;;;;;4929962;29;20643;-85
2022/03/05 09:08:01;;;;;;;21.73;12.77;;;;;;;;;;4952473;29;20640;-86
2022/03/05 09:11:09;;;;;;;18.33;11.20;;;;;;;;;;4942009;29;20548;-87
2022/03/05 09:14:20;;;;;;;18.87;10.13;;;;;;;;;;4941462;28;20645;-86
2022/03/05 09:17:28;;;;;;;17.17;10.30;;;;;;;;;;4958140;28;20978;-85
2022/03/05 09:20:36;;;;;;;16.40;10.13;;;;;;;;;;4930635;29;20580;-87
2022/03/05 09:23:49;;;;;;;18.97;11.20;;;;;;;;;;4932250;28;21268;-86
2022/03/05 09:26:56;;;;;;;18.73;10.37;;;;;;;;;;4931437;29;20600;-86
2022/03/05 09:30:28;;;;;;;19.03;11.13;;;;;;;;;;4940879;29;20646;-87
2022/03/05 09:34:01;;;;;;;19.03;11.33;;;;;;;;;;4930013;28;20655;-87
2022/03/05 09:37:08;;;;;;;13.80;7.97;;;;;;;;;;4923640;29;20560;-87
2022/03/05 09:40:13;;;;;;;15.20;8.30;;;;;;;;;;4934028;29;20552;-87
2022/03/05 09:43:18;;;;;;;14.50;8.23;;;;;;;;;;4933703;29;21193;-87
2022/03/05 09:46:23;;;;;;;13.87;7.93;;;;;;;;;;4933754;29;20544;-87
2022/03/05 09:49:28;;;;;;;15.30;8.03;;;;;;;;;;4933623;29;20656;-87
2022/03/05 09:52:33;;;;;;;12.60;7.70;;;;;;;;;;4944403;29;20612;-87
2022/03/05 09:55:37;;;;;;;12.50;7.27;;;;;;;;;;4933749;29;20603;-87
2022/03/05 09:58:42;;;;;;;12.77;7.70;;;;;;;;;;4934197;29;20904;-87
2022/03/05 10:01:46;;;;;;;14.53;7.80;;;;;;;;;;4934151;29;20548;-87
2022/03/05 10:04:51;;;;;;;9.90;6.20;;;;;;;;;;4937193;29;20635;-87
2022/03/05 10:08:01;;;;;;;11.53;6.33;;;;;;;;;;4937729;29;20566;-87
2022/03/05 10:11:09;;;;;;;10.63;5.77;;;;;;;;;;4927904;28;20596;-87
2022/03/05 10:14:15;;;;;;;12.17;6.20;;;;;;;;;;4948402;28;20639;-87
2022/03/05 10:17:19;;;;;;;10.90;6.97;;;;;;;;;;4915969;29;20552;-87
2022/03/05 10:20:27;;;;;;;11.20;6.73;;;;;;;;;;4926178;29;20544;-87
2022/03/05 10:23:43;;;;;;;11.20;6.37;;;;;;;;;;4937125;29;20628;-87
2022/03/05 10:26:55;;;;;;;9.90;6.63;;;;;;;;;;4938807;29;20545;-87
2022/03/05 10:29:59;;;;;;;9.17;5.73;;;;;;;;;;4959619;28;20635;-86
2022/03/05 10:33:05;;;;;;;9.30;5.93;;;;;;;;;;4927015;29;20632;-85
2022/03/05 10:36:23;;;;;;;7.53;4.93;;;;;;;;;;4943549;29;20591;-87
2022/03/05 10:39:30;;;;;;;8.80;5.23;;;;;;;;;;4945394;29;20619;-86
2022/03/05 10:42:37;;;;;;;9.37;5.03;;;;;;;;;;4955320;29;20607;-86
2022/03/05 10:45:54;;;;;;;8.83;5.03;;;;;;;;;;4944244;29;20634;-86
2022/03/05 10:49:07;;;;;;;8.60;5.30;;;;;;;;;;4955079;29;20659;-87
2022/03/05 10:52:11;;;;;;;10.07;6.03;;;;;;;;;;4954023;29;20971;-87
2022/03/05 10:55:21;;;;;;;10.23;6.50;;;;;;;;;;4942829;29;20199;-86
2022/03/05 10:58:25;;;;;;;12.30;7.40;;;;;;;;;;4954304;29;20531;-86
2022/03/05 11:01:31;;;;;;;12.23;6.90;;;;;;;;;;4933166;29;20183;-86
2022/03/05 11:04:37;;;;;;;13.27;6.93;;;;;;;;;;4959434;28;20210;-87
2022/03/05 11:07:41;;;;;;;11.23;6.73;;;;;;;;;;4935841;29;20552;-86
2022/03/05 11:10:48;;;;;;;9.77;6.07;;;;;;;;;;4951061;29;20583;-86
2022/03/05 11:13:59;;;;;;;9.77;5.50;;;;;;;;;;4933633;28;20622;-87
2022/03/05 11:17:28;;;;;;;11.07;6.83;;;;;;;;;;4968621;28;20571;-87
2022/03/05 11:20:32;;;;;;;9.83;6.40;;;;;;;;;;5057525;28;20172;-87
2022/03/05 11:23:38;;;;;;;10.30;5.90;;;;;;;;;;5025584;28;20221;-87
2022/03/05 11:26:45;;;;;;;9.63;5.50;;;;;;;;;;5025544;28;20604;-87
2022/03/05 11:29:58;;;;;;;9.57;5.37;;;;;;;;;;4953376;28;20634;-87
2022/03/05 11:33:02;;;;;;;10.17;5.47;;;;;;;;;;4924714;29;20919;-87
2022/03/05 11:36:07;;;;;;;11.20;5.97;;;;;;;;;;4948977;28;20615;-87
2022/03/05 11:39:13;;;;;;;10.43;6.00;;;;;;;;;;4929479;29;20591;-87
2022/03/05 11:42:34;;;;;;;10.70;6.00;;;;;;;;;;4933803;29;20583;-86
2022/03/05 11:45:45;;;;;;;10.57;6.43;;;;;;;;;;4925601;29;20597;-86
2022/03/05 11:49:02;;;;;;;10.27;6.47;;;;;;;;;;4944490;29;20979;-87
2022/03/05 11:52:06;;;;;;;10.70;6.83;;;;;;;;;;4924724;29;20948;-86
2022/03/05 11:55:10;;;;;;;11.43;6.50;;;;;;;;;;4925902;29;20600;-87
2022/03/05 11:58:14;;;;;;;11.53;7.17;;;;;;;;;;4923575;29;20579;-87
2022/03/05 12:01:33;;;;;;;11.57;6.97;;;;;;;;;;4944808;29;20595;-87
2022/03/05 12:04:52;;;;;;;11.40;6.67;;;;;;;;;;4936340;29;20647;-86
2022/03/05 12:08:00;;;;;;;11.20;6.27;;;;;;;;;;4940655;29;20632;-86
2022/03/05 12:11:17;;;;;;;10.37;6.50;;;;;;;;;;4924768;29;21075;-86
2022/03/05 12:14:23;;;;;;;10.77;5.80;;;;;;;;;;4913988;29;20640;-86
2022/03/05 12:17:41;;;;;;;11.63;6.90;;;;;;;;;;4913678;29;20608;-86
2022/03/05 12:20:48;;;;;;;42.30;20.37;;;;;;;;;;4925062;29;20549;-86
2022/03/05 12:24:05;;;;;;;25.97;12.97;;;;;;;;;;4923659;29;20632;-86
2022/03/05 12:27:30;;;;;;;11.60;6.93;;;;;;;;;;4935780;29;20947;-86
2022/03/05 12:30:40;;;;;;;14.03;6.80;;;;;;;;;;4936067;29;20600;-86
2022/03/05 12:33:48;;;;;;;13.33;8.03;;;;;;;;;;4935949;29;20639;-86
2022/03/05 12:37:10;;;;;;;13.67;7.97;;;;;;;;;;4936535;29;20561;-86
2022/03/05 12:40:18;;;;;;;19.03;9.87;;;;;;;;;;4934484;29;20635;-86
2022/03/05 12:43:22;;;;;;;37.30;16.43;;;;;;;;;;4961242;22;20678;-88
2022/03/05 12:46:26;;;;;;;16.50;8.07;;;;;;;;;;4942278;29;20184;-87
2022/03/05 12:49:30;;;;;;;13.10;7.80;;;;;;;;;;4931082;29;20595;-88
2022/03/05 12:52:35;;;;;;;17.50;8.80;;;;;;;;;;4952990;29;20543;-88
2022/03/05 12:55:43;;;;;;;17.03;10.13;;;;;;;;;;4922803;29;20545;-87
2022/03/05 12:58:47;;;;;;;12.27;8.13;;;;;;;;;;4922875;29;20635;-88
2022/03/05 13:02:02;;;;;;;11.27;7.00;;;;;;;;;;4991010;28;20184;-88
2022/03/05 13:05:14;;;;;;;10.27;6.97;;;;;;;;;;4979785;28;20224;-88
2022/03/05 13:08:22;;;;;;;12.90;7.73;;;;;;;;;;4991588;28;20624;-89
2022/03/05 13:11:27;;;;;;;11.80;7.83;;;;;;;;;;4980008;28;20177;-88
2022/03/05 13:14:31;;;;;;;12.93;6.90;;;;;;;;;;4922533;29;20224;-88
2022/03/05 13:17:35;;;;;;;12.70;7.77;;;;;;;;;;4979564;28;20188;-88
2022/03/05 13:20:41;;;;;;;13.17;8.03;;;;;;;;;;4922586;29;20176;-88
2022/03/05 13:23:44;;;;;;;12.10;7.40;;;;;;;;;;4990455;28;20216;-88
2022/03/05 13:26:52;;;;;;;12.07;7.70;;;;;;;;;;4922511;29;20189;-88
2022/03/05 13:30:09;;;;;;;12.53;7.50;;;;;;;;;;4968309;28;20224;-88
2022/03/05 13:33:52;;;;;;;12.40;7.60;;;;;;;;;;4932741;29;20600;-88
2022/03/05 13:37:06;;;;;;;12.27;7.23;;;;;;;;;;4911010;29;20548;-88
2022/03/05 13:40:12;;;;;;;13.43;7.93;;;;;;;;;;4967736;28;20540;-88
2022/03/05 13:43:23;;;;;;;14.40;8.07;;;;;;;;;;4921981;28;20612;-88
2022/03/05 13:46:29;;;;;;;14.60;8.50;;;;;;;;;;4922192;29;20540;-88
2022/03/05 13:49:34;;;;;;;11.33;7.53;;;;;;;;;;4911203;28;20655;-88
2022/03/05 13:52:50;;;;;;;11.67;7.27;;;;;;;;;;5001840;28;20184;-88
2022/03/05 13:56:02;;;;;;;12.73;7.30;;;;;;;;;;4967738;28;20184;-89
2022/03/05 13:59:07;;;;;;;12.07;7.87;;;;;;;;;;4978812;28;20176;-87
2022/03/05 14:02:12;;;;;;;14.17;8.47;;;;;;;;;;4911128;29;20184;-88
2022/03/05 14:05:22;;;;;;;12.23;7.60;;;;;;;;;;4968422;28;20636;-87
2022/03/05 14:08:26;;;;;;;10.17;7.03;;;;;;;;;;4965021;28;20621;-87
2022/03/05 14:11:30;;;;;;;12.80;8.27;;;;;;;;;;4920009;29;20937;-87
2022/03/05 14:14:38;;;;;;;13.87;8.03;;;;;;;;;;4967524;28;20627;-88
2022/03/05 14:17:47;;;;;;;10.87;7.13;;;;;;;;;;4910535;29;20597;-87
2022/03/05 14:20:51;;;;;;;13.80;8.03;;;;;;;;;;4910981;29;20545;-88
2022/03/05 14:24:02;;;;;;;13.30;8.13;;;;;;;;;;4967385;28;20624;-87
2022/03/05 14:27:13;;;;;;;12.63;7.90;;;;;;;;;;4945594;28;20600;-87
2022/03/05 14:30:18;;;;;;;12.47;7.57;;;;;;;;;;4966995;28;20652;-87
2022/03/05 14:33:23;;;;;;;14.23;7.97;;;;;;;;;;4932811;29;20656;-87
2022/03/05 14:36:27;;;;;;;18.47;8.93;;;;;;;;;;4911229;29;20627;-86
2022/03/05 14:39:31;;;;;;;16.67;9.20;;;;;;;;;;4968056;28;20540;-86
2022/03/05 14:42:36;;;;;;;29.07;10.87;;;;;;;;;;4962570;28;20604;-87
2022/03/05 14:45:41;;;;;;;13.80;7.63;;;;;;;;;;4921907;29;20600;-87
2022/03/05 14:48:45;;;;;;;11.83;7.87;;;;;;;;;;4925433;29;20600;-88
2022/03/05 14:51:50;;;;;;;12.90;7.40;;;;;;;;;;4913858;29;20620;-87
2022/03/05 14:54:54;;;;;;;15.57;8.03;;;;;;;;;;4970661;28;20632;-88
2022/03/05 14:57:58;;;;;;;12.80;7.73;;;;;;;;;;4969625;28;20591;-87
2022/03/05 15:01:02;;;;;;;10.67;6.93;;;;;;;;;;4960508;28;20880;-85
2022/03/05 15:04:07;;;;;;;13.43;7.63;;;;;;;;;;4982238;28;20651;-86
2022/03/05 15:07:11;;;;;;;14.00;8.23;;;;;;;;;;4926137;28;21216;-86
2022/03/05 15:10:15;;;;;;;12.57;8.07;;;;;;;;;;4971771;28;20600;-86
2022/03/05 15:13:19;;;;;;;14.33;7.83;;;;;;;;;;4925575;28;21185;-87
2022/03/05 15:16:25;;;;;;;15.77;8.23;;;;;;;;;;4905454;29;20593;-87
2022/03/05 15:19:29;;;;;;;14.43;8.00;;;;;;;;;;4915023;28;20624;-87
2022/03/05 15:22:32;;;;;;;13.37;7.97;;;;;;;;;;4970255;28;20560;-87
2022/03/05 15:25:36;;;;;;;13.83;8.20;;;;;;;;;;4992896;28;20599;-86
2022/03/05 15:28:41;;;;;;;15.13;8.33;;;;;;;;;;4960061;28;20548;-86
2022/03/05 15:31:46;;;;;;;17.43;9.47;;;;;;;;;;4980535;28;20656;-87
2022/03/05 15:34:50;;;;;;;16.03;8.13;;;;;;;;;;4924277;29;20647;-87
2022/03/05 15:37:54;;;;;;;16.83;9.20;;;;;;;;;;4981515;28;20931;-87
2022/03/05 15:40:58;;;;;;;15.57;9.13;;;;;;;;;;4960709;28;20596;-86
2022/03/05 15:44:03;;;;;;;14.17;8.47;;;;;;;;;;4981180;28;20998;-88
2022/03/05 15:47:06;;;;;;;12.57;7.83;;;;;;;;;;4913364;29;20960;-87
2022/03/05 15:50:13;;;;;;;30.87;9.27;;;;;;;;;;4923128;29;21178;-87
2022/03/05 15:53:17;;;;;;;12.50;8.10;;;;;;;;;;4955106;28;20580;-88
2022/03/05 15:56:22;;;;;;;12.90;7.97;;;;;;;;;;4968845;28;20600;-87
2022/03/05 15:59:27;;;;;;;14.73;8.13;;;;;;;;;;4979891;28;20603;-87
2022/03/05 16:02:31;;;;;;;11.90;6.80;;;;;;;;;;4968886;28;20541;-87
2022/03/05 16:05:35;;;;;;;13.37;7.50;;;;;;;;;;4968674;28;20624;-87
2022/03/05 16:08:40;;;;;;;12.90;8.00;;;;;;;;;;4968043;28;20615;-86
2022/03/05 16:11:45;;;;;;;13.27;7.87;;;;;;;;;;4954731;28;20632;-87
2022/03/05 16:14:49;;;;;;;13.37;7.63;;;;;;;;;;4980342;28;20627;-87
2022/03/05 16:17:53;;;;;;;14.83;8.63;;;;;;;;;;4968611;28;20595;-87
2022/03/05 16:20:57;;;;;;;14.57;8.47;;;;;;;;;;4933479;28;20592;-87
2022/03/05 16:24:01;;;;;;;11.27;7.70;;;;;;;;;;4922457;29;20754;-87
2022/03/05 16:27:05;;;;;;;17.33;9.03;;;;;;;;;;4882360;29;20542;-88
2022/03/05 16:30:10;;;;;;;21.33;9.07;;;;;;;;;;4892676;29;20728;-87
2022/03/05 16:33:14;;;;;;;21.20;9.40;;;;;;;;;;4922410;29;20604;-87
2022/03/05 16:36:20;;;;;;;15.63;8.30;;;;;;;;;;4979416;28;20924;-88
2022/03/05 16:39:25;;;;;;;15.10;8.53;;;;;;;;;;4967660;28;20955;-87
2022/03/05 16:42:29;;;;;;;15.13;7.93;;;;;;;;;;4979744;28;20599;-87
2022/03/05 16:45:34;;;;;;;12.10;7.43;;;;;;;;;;4899119;28;20593;-87
2022/03/05 16:48:40;;;;;;;14.30;7.73;;;;;;;;;;4979950;28;20540;-87
2022/03/05 16:51:46;;;;;;;12.20;7.77;;;;;;;;;;4955473;28;20636;-88
2022/03/05 16:54:52;;;;;;;15.10;8.87;;;;;;;;;;4981279;28;20652;-87
2022/03/05 16:57:57;;;;;;;12.70;8.30;;;;;;;;;;4928283;28;20604;-89
2022/03/05 17:01:03;;;;;;;14.97;8.70;;;;;;;;;;4979222;28;20541;-87
2022/03/05 17:04:07;;;;;;;15.40;8.60;;;;;;;;;;4968174;28;20627;-88
2022/03/05 17:07:12;;;;;;;15.23;9.03;;;;;;;;;;4967322;28;20588;-88
2022/03/05 17:10:17;;;;;;;13.80;8.97;;;;;;;;;;4914212;29;20546;-88
2022/03/05 17:13:22;;;;;;;15.97;8.80;;;;;;;;;;4970597;28;20633;-87
2022/03/05 17:16:25;;;;;;;14.53;8.53;;;;;;;;;;4960226;28;20541;-88
2022/03/05 17:19:30;;;;;;;14.00;8.53;;;;;;;;;;4971196;28;20553;-87
2022/03/05 17:22:35;;;;;;;21.23;10.77;;;;;;;;;;4932886;29;20587;-85
2022/03/05 17:25:39;;;;;;;28.10;12.47;;;;;;;;;;4931212;28;20597;-85
2022/03/05 17:28:43;;;;;;;24.93;13.13;;;;;;;;;;4984864;28;20591;-85
2022/03/05 17:31:47;;;;;;;41.80;17.70;;;;;;;;;;4904482;29;20601;-88
2022/03/05 17:35:00;;;;;;;19.57;10.10;;;;;;;;;;4959803;28;20651;-87
2022/03/05 17:38:04;;;;;;;19.83;10.63;;;;;;;;;;4987647;28;21077;-88
2022/03/05 17:41:08;;;;;;;12.67;8.00;;;;;;;;;;4990667;28;20595;-87
2022/03/05 17:44:12;;;;;;;14.47;9.07;;;;;;;;;;4973114;28;20638;-87
2022/03/05 17:47:16;;;;;;;12.07;8.13;;;;;;;;;;4900702;29;20589;-88
2022/03/05 17:50:26;;;;;;;14.27;8.57;;;;;;;;;;4973884;28;20596;-88
2022/03/05 17:53:30;;;;;;;15.03;8.90;;;;;;;;;;4904244;29;20988;-88
2022/03/05 17:56:34;;;;;;;12.50;7.57;;;;;;;;;;4967883;28;20604;-87
2022/03/05 17:59:39;;;;;;;12.57;7.80;;;;;;;;;;4921272;29;20585;-88
2022/03/05 18:02:43;;;;;;;16.63;8.97;;;;;;;;;;4978897;28;20545;-88
2022/03/05 18:05:48;;;;;;;13.70;7.67;;;;;;;;;;4892346;29;20537;-87
2022/03/05 18:08:51;;;;;;;15.90;8.63;;;;;;;;;;4915365;29;20603;-88
2022/03/05 18:11:55;;;;;;;13.90;8.27;;;;;;;;;;4949070;28;20640;-88
2022/03/05 18:15:00;;;;;;;16.03;9.03;;;;;;;;;;4931438;28;21237;-87
2022/03/05 18:18:04;;;;;;;14.93;8.53;;;;;;;;;;4911043;29;20591;-87
2022/03/05 18:21:07;;;;;;;17.00;9.37;;;;;;;;;;4911225;29;20549;-87
2022/03/05 18:24:30;;;;;;;18.67;10.03;;;;;;;;;;4970184;28;20623;-88
2022/03/05 18:27:34;;;;;;;19.50;9.90;;;;;;;;;;4974955;28;20619;-87
2022/03/05 18:30:38;;;;;;;15.80;9.90;;;;;;;;;;4953987;28;20928;-87
2022/03/05 18:33:42;;;;;;;18.70;11.00;;;;;;;;;;4896117;29;20643;-87
2022/03/05 18:36:46;;;;;;;18.53;9.90;;;;;;;;;;4924578;29;20576;-87
2022/03/05 18:39:50;;;;;;;17.60;9.10;;;;;;;;;;4919971;28;21173;-88
2022/03/05 18:42:55;;;;;;;16.77;8.80;;;;;;;;;;4914812;29;20612;-87
2022/03/05 18:46:00;;;;;;;16.37;8.97;;;;;;;;;;5070309;23;20681;-87
2022/03/05 18:49:05;;;;;;;19.97;9.60;;;;;;;;;;5056401;28;20531;-87
2022/03/05 18:52:10;;;;;;;18.17;9.93;;;;;;;;;;5067691;28;20594;-86
2022/03/05 18:55:20;;;;;;;29.07;10.73;;;;;;;;;;5059486;28;20638;-87
2022/03/05 18:58:25;;;;;;;20.03;10.20;;;;;;;;;;5044371;28;20597;-86
2022/03/05 19:01:34;;;;;;;16.07;9.43;;;;;;;;;;5043902;28;20601;-87
2022/03/05 19:04:39;;;;;;;18.57;10.37;;;;;;;;;;5044148;28;20642;-85
2022/03/05 19:08:09;;;;;;;16.00;9.00;;;;;;;;;;5055359;28;20590;-87
2022/03/05 19:11:14;;;;;;;15.50;9.10;;;;;;;;;;5043630;28;20637;-86
2022/03/05 19:14:19;;;;;;;15.73;9.30;;;;;;;;;;5056245;28;20657;-86
2022/03/05 19:17:29;;;;;;;19.07;9.47;;;;;;;;;;5055076;28;20590;-87
2022/03/05 19:20:37;;;;;;;17.73;9.90;;;;;;;;;;5044466;28;21175;-86
2022/03/05 19:23:43;;;;;;;18.23;9.90;;;;;;;;;;5033804;28;20943;-87
2022/03/05 19:26:47;;;;;;;17.10;9.93;;;;;;;;;;5044160;28;20914;-87
2022/03/05 19:29:55;;;;;;;19.70;11.57;;;;;;;;;;5044054;28;20555;-88
2022/03/05 19:33:26;;;;;;;20.03;11.33;;;;;;;;;;5055467;28;20598;-87
2022/03/05 19:36:32;;;;;;;19.10;10.87;;;;;;;;;;5042991;28;20550;-87
2022/03/05 19:39:45;;;;;;;17.57;10.07;;;;;;;;;;5049240;28;20606;-87
2022/03/05 19:42:50;;;;;;;17.63;9.97;;;;;;;;;;5055201;28;20542;-87
2022/03/05 19:45:59;;;;;;;19.20;10.13;;;;;;;;;;5044335;28;20645;-86